sensor_id;sensor_type;location;lat;lon;timestamp;temperature;humidity
20158;DHT22;10239;56.820;24.416;2024-03-02T00:01:39;4.10;99.90
20158;DHT22;10239;56.820;24.416;2024-03-02T00:04:08;3.90;99.90
20158;DHT22;10239;56.820;24.416;2024-03-02T00:06:35;4.10;99.90
20158;DHT22;10239;56.820;24.416;2024-03-02T00:09:03;4.20;99.90
20158;DHT22;10239;56.820;24.416;2024-03-02T00:11:31;4.40;99.90
20158;DHT22;10239;56.820;24.416;2024-03-02T00:14:02;4.50;99.90
20158;DHT22;10239;56.820;24.416;2024-03-02T00:16:32;4.50;99.90
20158;DHT22;10239;56.820;24.416;2024-03-02T00:19:05;4.40;99.90
20158;DHT22;10239;56.820;24.416;2024-03-02T00:21:33;4.50;99.90
20158;DHT22;10239;56.820;24.416;2024-03-02T00:24:02;4.40;99.90
20158;DHT22;10239;56.820;24.416;2024-03-02T00:26:34;4.40;99.90
20158;DHT22;10239;56.820;24.416;2024-03-02T00:29:02;4.40;99.90
20158;DHT22;10239;56.820;24.416;2024-03-02T00:31:29;4.20;99.90
20158;DHT22;10239;56.820;24.416;2024-03-02T00:34:01;4.30;99.90
20158;DHT22;10239;56.820;24.416;2024-03-02T00:36:31;4.20;99.90
20158;DHT22;10239;56.820;24.416;2024-03-02T00:38:59;4.20;99.90
20158;DHT22;10239;56.820;24.416;2024-03-02T00:41:32;4.30;99.90
20158;DHT22;10239;56.820;24.416;2024-03-02T00:44:00;4.10;99.90
20158;DHT22;10239;56.820;24.416;2024-03-02T00:46:36;4.00;99.90
20158;DHT22;10239;56.820;24.416;2024-03-02T00:51:39;4.20;99.90
20158;DHT22;10239;56.820;24.416;2024-03-02T00:54:09;4.10;99.90
20158;DHT22;10239;56.820;24.416;2024-03-02T00:56:36;4.10;99.90
20158;DHT22;10239;56.820;24.416;2024-03-02T00:59:04;4.10;99.90
20158;DHT22;10239;56.820;24.416;2024-03-02T01:01:31;4.10;99.90
20158;DHT22;10239;56.820;24.416;2024-03-02T01:03:59;4.10;99.90
20158;DHT22;10239;56.820;24.416;2024-03-02T01:06:27;3.80;99.90
20158;DHT22;10239;56.820;24.416;2024-03-02T01:08:55;4.10;99.90
20158;DHT22;10239;56.820;24.416;2024-03-02T01:11:22;4.10;99.90
20158;DHT22;10239;56.820;24.416;2024-03-02T01:13:51;4.00;99.90
20158;DHT22;10239;56.820;24.416;2024-03-02T01:16:20;4.00;99.90
20158;DHT22;10239;56.820;24.416;2024-03-02T01:18:48;4.10;99.90
20158;DHT22;10239;56.820;24.416;2024-03-02T01:21:16;4.00;99.90
20158;DHT22;10239;56.820;24.416;2024-03-02T01:23:43;3.90;99.90
20158;DHT22;10239;56.820;24.416;2024-03-02T01:26:11;3.80;99.90
20158;DHT22;10239;56.820;24.416;2024-03-02T01:28:38;3.80;99.90
20158;DHT22;10239;56.820;24.416;2024-03-02T01:31:06;3.80;99.90
20158;DHT22;10239;56.820;24.416;2024-03-02T01:33:34;3.90;99.90
20158;DHT22;10239;56.820;24.416;2024-03-02T01:36:01;3.90;99.90
20158;DHT22;10239;56.820;24.416;2024-03-02T01:38:29;3.90;99.90
20158;DHT22;10239;56.820;24.416;2024-03-02T01:40:57;3.90;99.90
20158;DHT22;10239;56.820;24.416;2024-03-02T01:43:25;3.90;99.90
20158;DHT22;10239;56.820;24.416;2024-03-02T01:45:53;4.00;99.90
20158;DHT22;10239;56.820;24.416;2024-03-02T01:48:21;3.90;99.90
20158;DHT22;10239;56.820;24.416;2024-03-02T01:50:48;3.70;99.90
20158;DHT22;10239;56.820;24.416;2024-03-02T01:53:16;3.80;99.90
20158;DHT22;10239;56.820;24.416;2024-03-02T01:55:43;3.80;99.90
20158;DHT22;10239;56.820;24.416;2024-03-02T01:58:11;3.80;99.90
20158;DHT22;10239;56.820;24.416;2024-03-02T02:00:39;3.70;99.90
20158;DHT22;10239;56.820;24.416;2024-03-02T02:03:07;3.80;99.90
20158;DHT22;10239;56.820;24.416;2024-03-02T02:05:35;3.90;99.90
20158;DHT22;10239;56.820;24.416;2024-03-02T02:08:02;3.80;99.90
20158;DHT22;10239;56.820;24.416;2024-03-02T02:10:30;3.80;99.90
20158;DHT22;10239;56.820;24.416;2024-03-02T02:12:58;3.70;99.90
20158;DHT22;10239;56.820;24.416;2024-03-02T02:15:28;3.80;99.90
20158;DHT22;10239;56.820;24.416;2024-03-02T02:17:57;3.80;99.90
20158;DHT22;10239;56.820;24.416;2024-03-02T02:20:25;3.80;99.90
20158;DHT22;10239;56.820;24.416;2024-03-02T02:23:00;3.60;99.90
20158;DHT22;10239;56.820;24.416;2024-03-02T02:25:28;3.60;99.90
20158;DHT22;10239;56.820;24.416;2024-03-02T02:27:57;3.70;99.90
20158;DHT22;10239;56.820;24.416;2024-03-02T02:30:28;3.60;99.90
20158;DHT22;10239;56.820;24.416;2024-03-02T02:32:56;3.60;99.90
20158;DHT22;10239;56.820;24.416;2024-03-02T02:35:24;3.60;99.90
20158;DHT22;10239;56.820;24.416;2024-03-02T02:37:54;3.60;99.90
20158;DHT22;10239;56.820;24.416;2024-03-02T02:40:22;3.60;99.90
20158;DHT22;10239;56.820;24.416;2024-03-02T02:42:50;3.60;99.90
20158;DHT22;10239;56.820;24.416;2024-03-02T02:45:21;3.60;99.90
20158;DHT22;10239;56.820;24.416;2024-03-02T02:47:49;3.60;99.90
20158;DHT22;10239;56.820;24.416;2024-03-02T02:50:17;3.50;99.90
20158;DHT22;10239;56.820;24.416;2024-03-02T02:52:45;3.70;99.90
20158;DHT22;10239;56.820;24.416;2024-03-02T02:55:13;3.60;99.90
20158;DHT22;10239;56.820;24.416;2024-03-02T02:57:41;3.70;99.90
20158;DHT22;10239;56.820;24.416;2024-03-02T03:00:12;3.70;99.90
20158;DHT22;10239;56.820;24.416;2024-03-02T03:02:47;3.60;99.90
20158;DHT22;10239;56.820;24.416;2024-03-02T03:05:17;3.50;99.90
20158;DHT22;10239;56.820;24.416;2024-03-02T03:07:45;3.60;99.90
20158;DHT22;10239;56.820;24.416;2024-03-02T03:10:13;3.60;99.90
20158;DHT22;10239;56.820;24.416;2024-03-02T03:12:42;3.70;99.90
20158;DHT22;10239;56.820;24.416;2024-03-02T03:15:12;3.70;99.90
20158;DHT22;10239;56.820;24.416;2024-03-02T03:17:40;3.60;99.90
20158;DHT22;10239;56.820;24.416;2024-03-02T03:20:08;3.60;99.90
20158;DHT22;10239;56.820;24.416;2024-03-02T03:22:39;3.60;99.90
20158;DHT22;10239;56.820;24.416;2024-03-02T03:25:07;3.80;99.90
20158;DHT22;10239;56.820;24.416;2024-03-02T03:27:38;3.70;99.90
20158;DHT22;10239;56.820;24.416;2024-03-02T03:30:06;3.70;99.90
20158;DHT22;10239;56.820;24.416;2024-03-02T03:32:34;3.60;99.90
20158;DHT22;10239;56.820;24.416;2024-03-02T03:35:02;3.70;99.90
20158;DHT22;10239;56.820;24.416;2024-03-02T03:37:30;3.60;99.90
20158;DHT22;10239;56.820;24.416;2024-03-02T03:40:02;3.60;99.90
20158;DHT22;10239;56.820;24.416;2024-03-02T03:42:30;3.60;99.90
20158;DHT22;10239;56.820;24.416;2024-03-02T03:44:57;3.50;99.90
20158;DHT22;10239;56.820;24.416;2024-03-02T03:47:25;3.50;99.90
20158;DHT22;10239;56.820;24.416;2024-03-02T03:49:53;3.50;99.90
20158;DHT22;10239;56.820;24.416;2024-03-02T03:52:21;3.60;99.90
20158;DHT22;10239;56.820;24.416;2024-03-02T03:54:48;3.70;99.90
20158;DHT22;10239;56.820;24.416;2024-03-02T03:57:16;3.60;99.90
20158;DHT22;10239;56.820;24.416;2024-03-02T03:59:44;3.50;99.90
20158;DHT22;10239;56.820;24.416;2024-03-02T04:02:13;3.60;99.90
20158;DHT22;10239;56.820;24.416;2024-03-02T04:04:41;3.50;99.90
20158;DHT22;10239;56.820;24.416;2024-03-02T04:07:08;3.60;99.90
20158;DHT22;10239;56.820;24.416;2024-03-02T04:09:36;3.60;99.90
20158;DHT22;10239;56.820;24.416;2024-03-02T04:12:03;3.70;99.90
20158;DHT22;10239;56.820;24.416;2024-03-02T04:14:31;3.70;99.90
20158;DHT22;10239;56.820;24.416;2024-03-02T04:16:59;3.60;99.90
20158;DHT22;10239;56.820;24.416;2024-03-02T04:19:26;3.60;99.90
20158;DHT22;10239;56.820;24.416;2024-03-02T04:21:54;3.60;99.90
20158;DHT22;10239;56.820;24.416;2024-03-02T04:24:22;3.60;99.90
20158;DHT22;10239;56.820;24.416;2024-03-02T04:26:49;3.70;99.90
20158;DHT22;10239;56.820;24.416;2024-03-02T04:29:17;3.60;99.90
20158;DHT22;10239;56.820;24.416;2024-03-02T04:31:44;3.70;99.90
20158;DHT22;10239;56.820;24.416;2024-03-02T04:34:11;3.60;99.90
20158;DHT22;10239;56.820;24.416;2024-03-02T04:36:39;3.60;99.90
20158;DHT22;10239;56.820;24.416;2024-03-02T04:39:06;3.60;99.90
20158;DHT22;10239;56.820;24.416;2024-03-02T04:41:37;3.70;99.90
20158;DHT22;10239;56.820;24.416;2024-03-02T04:44:04;3.60;99.90
20158;DHT22;10239;56.820;24.416;2024-03-02T04:46:31;3.60;99.90
20158;DHT22;10239;56.820;24.416;2024-03-02T04:48:59;3.60;99.90
20158;DHT22;10239;56.820;24.416;2024-03-02T04:51:26;3.60;99.90
20158;DHT22;10239;56.820;24.416;2024-03-02T04:53:54;3.70;99.90
20158;DHT22;10239;56.820;24.416;2024-03-02T04:56:21;3.70;99.90
20158;DHT22;10239;56.820;24.416;2024-03-02T04:59:07;3.50;99.90
20158;DHT22;10239;56.820;24.416;2024-03-02T05:01:35;3.70;99.90
20158;DHT22;10239;56.820;24.416;2024-03-02T05:04:02;3.60;99.90
20158;DHT22;10239;56.820;24.416;2024-03-02T05:06:30;3.70;99.90
20158;DHT22;10239;56.820;24.416;2024-03-02T05:08:58;3.90;99.90
20158;DHT22;10239;56.820;24.416;2024-03-02T05:11:25;3.80;99.90
20158;DHT22;10239;56.820;24.416;2024-03-02T05:14:05;3.80;99.90
20158;DHT22;10239;56.820;24.416;2024-03-02T05:16:35;3.90;99.90
20158;DHT22;10239;56.820;24.416;2024-03-02T05:19:04;3.90;99.90
20158;DHT22;10239;56.820;24.416;2024-03-02T05:21:34;3.90;99.90
20158;DHT22;10239;56.820;24.416;2024-03-02T05:24:02;4.00;99.90
20158;DHT22;10239;56.820;24.416;2024-03-02T05:26:30;4.00;99.90
20158;DHT22;10239;56.820;24.416;2024-03-02T05:28:57;4.10;99.90
20158;DHT22;10239;56.820;24.416;2024-03-02T05:31:25;4.10;99.90
20158;DHT22;10239;56.820;24.416;2024-03-02T05:33:52;4.00;99.90
20158;DHT22;10239;56.820;24.416;2024-03-02T05:36:24;4.00;99.90
20158;DHT22;10239;56.820;24.416;2024-03-02T05:38:52;4.20;99.90
20158;DHT22;10239;56.820;24.416;2024-03-02T05:41:19;4.20;99.90
20158;DHT22;10239;56.820;24.416;2024-03-02T05:43:48;4.30;99.90
20158;DHT22;10239;56.820;24.416;2024-03-02T05:46:16;4.20;99.90
20158;DHT22;10239;56.820;24.416;2024-03-02T05:48:46;4.40;99.90
20158;DHT22;10239;56.820;24.416;2024-03-02T05:51:13;4.40;99.90
20158;DHT22;10239;56.820;24.416;2024-03-02T05:53:41;4.50;99.90
20158;DHT22;10239;56.820;24.416;2024-03-02T05:56:09;4.30;99.90
20158;DHT22;10239;56.820;24.416;2024-03-02T05:58:36;4.50;99.90
20158;DHT22;10239;56.820;24.416;2024-03-02T06:01:21;4.40;99.90
20158;DHT22;10239;56.820;24.416;2024-03-02T06:03:56;4.40;99.90
20158;DHT22;10239;56.820;24.416;2024-03-02T06:06:24;4.60;99.90
20158;DHT22;10239;56.820;24.416;2024-03-02T06:08:52;4.70;99.90
20158;DHT22;10239;56.820;24.416;2024-03-02T06:11:20;4.80;99.90
20158;DHT22;10239;56.820;24.416;2024-03-02T06:13:47;4.90;99.90
20158;DHT22;10239;56.820;24.416;2024-03-02T06:16:14;5.00;99.90
20158;DHT22;10239;56.820;24.416;2024-03-02T06:18:42;5.30;99.90
20158;DHT22;10239;56.820;24.416;2024-03-02T06:21:09;5.70;99.90
20158;DHT22;10239;56.820;24.416;2024-03-02T06:23:37;5.80;99.90
20158;DHT22;10239;56.820;24.416;2024-03-02T06:26:05;6.00;99.90
20158;DHT22;10239;56.820;24.416;2024-03-02T06:28:32;6.50;99.90
20158;DHT22;10239;56.820;24.416;2024-03-02T06:31:01;6.60;99.90
20158;DHT22;10239;56.820;24.416;2024-03-02T06:33:29;7.00;99.90
20158;DHT22;10239;56.820;24.416;2024-03-02T06:35:57;7.40;99.90
20158;DHT22;10239;56.820;24.416;2024-03-02T06:38:24;7.50;99.90
20158;DHT22;10239;56.820;24.416;2024-03-02T06:40:52;8.00;99.90
20158;DHT22;10239;56.820;24.416;2024-03-02T06:43:19;8.40;99.90
20158;DHT22;10239;56.820;24.416;2024-03-02T06:45:50;8.80;99.90
20158;DHT22;10239;56.820;24.416;2024-03-02T06:48:19;9.30;99.90
20158;DHT22;10239;56.820;24.416;2024-03-02T06:50:50;9.90;99.90
20158;DHT22;10239;56.820;24.416;2024-03-02T06:53:19;10.10;99.90
20158;DHT22;10239;56.820;24.416;2024-03-02T06:55:46;9.40;99.90
20158;DHT22;10239;56.820;24.416;2024-03-02T06:58:14;9.40;99.90
20158;DHT22;10239;56.820;24.416;2024-03-02T07:00:44;9.60;99.90
20158;DHT22;10239;56.820;24.416;2024-03-02T07:03:12;9.70;99.90
20158;DHT22;10239;56.820;24.416;2024-03-02T07:05:39;10.90;99.90
20158;DHT22;10239;56.820;24.416;2024-03-02T07:08:07;11.60;99.90
20158;DHT22;10239;56.820;24.416;2024-03-02T07:10:35;11.60;99.90
20158;DHT22;10239;56.820;24.416;2024-03-02T07:13:02;11.50;99.90
20158;DHT22;10239;56.820;24.416;2024-03-02T07:15:29;11.30;99.90
20158;DHT22;10239;56.820;24.416;2024-03-02T07:18:12;11.60;99.90
20158;DHT22;10239;56.820;24.416;2024-03-02T07:20:39;11.70;99.90
20158;DHT22;10239;56.820;24.416;2024-03-02T07:23:06;12.40;99.90
20158;DHT22;10239;56.820;24.416;2024-03-02T07:25:34;12.30;99.90
20158;DHT22;10239;56.820;24.416;2024-03-02T07:28:04;12.40;99.90
20158;DHT22;10239;56.820;24.416;2024-03-02T07:30:32;12.80;99.90
20158;DHT22;10239;56.820;24.416;2024-03-02T07:33:00;12.40;99.90
20158;DHT22;10239;56.820;24.416;2024-03-02T07:35:27;12.70;99.90
20158;DHT22;10239;56.820;24.416;2024-03-02T07:37:54;13.00;99.90
20158;DHT22;10239;56.820;24.416;2024-03-02T07:40:22;13.00;99.90
20158;DHT22;10239;56.820;24.416;2024-03-02T07:42:50;12.10;99.90
20158;DHT22;10239;56.820;24.416;2024-03-02T07:45:17;11.30;99.90
20158;DHT22;10239;56.820;24.416;2024-03-02T07:47:46;11.60;99.90
20158;DHT22;10239;56.820;24.416;2024-03-02T07:50:13;11.10;99.90
20158;DHT22;10239;56.820;24.416;2024-03-02T07:52:42;10.40;99.90
20158;DHT22;10239;56.820;24.416;2024-03-02T07:55:09;9.90;99.90
20158;DHT22;10239;56.820;24.416;2024-03-02T07:57:36;10.00;99.90
20158;DHT22;10239;56.820;24.416;2024-03-02T08:00:04;10.20;99.90
20158;DHT22;10239;56.820;24.416;2024-03-02T08:02:38;11.10;99.90
20158;DHT22;10239;56.820;24.416;2024-03-02T08:05:05;11.60;99.90
20158;DHT22;10239;56.820;24.416;2024-03-02T08:07:33;11.60;99.90
20158;DHT22;10239;56.820;24.416;2024-03-02T08:10:00;11.50;99.90
20158;DHT22;10239;56.820;24.416;2024-03-02T08:12:27;11.40;99.90
20158;DHT22;10239;56.820;24.416;2024-03-02T08:14:55;12.40;99.90
20158;DHT22;10239;56.820;24.416;2024-03-02T08:17:22;12.50;99.90
20158;DHT22;10239;56.820;24.416;2024-03-02T08:19:50;12.80;99.90
20158;DHT22;10239;56.820;24.416;2024-03-02T08:22:17;12.70;99.90
20158;DHT22;10239;56.820;24.416;2024-03-02T08:24:45;13.10;99.90
20158;DHT22;10239;56.820;24.416;2024-03-02T08:27:13;13.40;99.90
20158;DHT22;10239;56.820;24.416;2024-03-02T08:29:40;13.10;99.90
20158;DHT22;10239;56.820;24.416;2024-03-02T08:32:08;13.30;99.90
20158;DHT22;10239;56.820;24.416;2024-03-02T08:34:35;13.30;99.90
20158;DHT22;10239;56.820;24.416;2024-03-02T08:37:03;13.30;99.90
20158;DHT22;10239;56.820;24.416;2024-03-02T08:39:30;13.20;99.90
20158;DHT22;10239;56.820;24.416;2024-03-02T08:41:58;12.60;99.90
20158;DHT22;10239;56.820;24.416;2024-03-02T08:44:26;13.20;99.90
20158;DHT22;10239;56.820;24.416;2024-03-02T08:46:55;12.70;99.90
20158;DHT22;10239;56.820;24.416;2024-03-02T08:49:22;12.40;99.90
20158;DHT22;10239;56.820;24.416;2024-03-02T08:51:50;12.60;99.90
20158;DHT22;10239;56.820;24.416;2024-03-02T08:54:24;12.50;99.90
20158;DHT22;10239;56.820;24.416;2024-03-02T08:56:51;12.80;99.90
20158;DHT22;10239;56.820;24.416;2024-03-02T08:59:19;12.60;99.90
20158;DHT22;10239;56.820;24.416;2024-03-02T09:01:46;12.80;99.90
20158;DHT22;10239;56.820;24.416;2024-03-02T09:04:14;12.70;99.90
20158;DHT22;10239;56.820;24.416;2024-03-02T09:06:41;12.90;99.90
20158;DHT22;10239;56.820;24.416;2024-03-02T09:09:09;13.00;99.90
20158;DHT22;10239;56.820;24.416;2024-03-02T09:11:37;12.30;99.90
20158;DHT22;10239;56.820;24.416;2024-03-02T09:14:04;12.60;99.90
20158;DHT22;10239;56.820;24.416;2024-03-02T09:16:32;13.00;99.90
20158;DHT22;10239;56.820;24.416;2024-03-02T09:18:59;12.90;99.90
20158;DHT22;10239;56.820;24.416;2024-03-02T09:21:27;12.70;99.90
20158;DHT22;10239;56.820;24.416;2024-03-02T09:23:57;12.60;99.90
20158;DHT22;10239;56.820;24.416;2024-03-02T09:26:24;12.90;99.90
20158;DHT22;10239;56.820;24.416;2024-03-02T09:28:52;13.00;99.90
20158;DHT22;10239;56.820;24.416;2024-03-02T09:31:20;12.80;99.90
20158;DHT22;10239;56.820;24.416;2024-03-02T09:33:47;12.80;99.90
20158;DHT22;10239;56.820;24.416;2024-03-02T09:36:19;12.90;99.90
20158;DHT22;10239;56.820;24.416;2024-03-02T09:38:47;12.70;99.90
20158;DHT22;10239;56.820;24.416;2024-03-02T09:41:14;12.90;99.90
20158;DHT22;10239;56.820;24.416;2024-03-02T09:43:42;12.60;99.90
20158;DHT22;10239;56.820;24.416;2024-03-02T09:46:10;12.50;99.90
20158;DHT22;10239;56.820;24.416;2024-03-02T09:48:38;12.50;99.90
20158;DHT22;10239;56.820;24.416;2024-03-02T09:51:06;13.30;99.90
20158;DHT22;10239;56.820;24.416;2024-03-02T09:53:34;13.70;99.90
20158;DHT22;10239;56.820;24.416;2024-03-02T09:56:02;13.70;99.90
20158;DHT22;10239;56.820;24.416;2024-03-02T09:58:30;14.10;99.90
20158;DHT22;10239;56.820;24.416;2024-03-02T10:00:57;13.00;99.90
20158;DHT22;10239;56.820;24.416;2024-03-02T10:03:26;13.10;99.90
20158;DHT22;10239;56.820;24.416;2024-03-02T10:05:56;13.10;99.90
20158;DHT22;10239;56.820;24.416;2024-03-02T10:08:23;12.80;99.90
20158;DHT22;10239;56.820;24.416;2024-03-02T10:10:52;12.80;99.90
20158;DHT22;10239;56.820;24.416;2024-03-02T10:13:19;12.70;99.90
20158;DHT22;10239;56.820;24.416;2024-03-02T10:15:52;12.60;99.90
20158;DHT22;10239;56.820;24.416;2024-03-02T10:18:27;12.70;99.90
20158;DHT22;10239;56.820;24.416;2024-03-02T10:21:13;12.70;99.90
20158;DHT22;10239;56.820;24.416;2024-03-02T10:23:42;12.30;99.90
20158;DHT22;10239;56.820;24.416;2024-03-02T10:26:21;12.60;99.90
20158;DHT22;10239;56.820;24.416;2024-03-02T10:28:49;12.70;99.90
20158;DHT22;10239;56.820;24.416;2024-03-02T10:31:17;13.10;99.90
20158;DHT22;10239;56.820;24.416;2024-03-02T10:33:45;13.20;99.90
20158;DHT22;10239;56.820;24.416;2024-03-02T10:36:13;13.10;99.90
20158;DHT22;10239;56.820;24.416;2024-03-02T10:38:41;13.10;99.90
20158;DHT22;10239;56.820;24.416;2024-03-02T10:41:08;13.30;99.90
20158;DHT22;10239;56.820;24.416;2024-03-02T10:43:36;13.30;99.90
20158;DHT22;10239;56.820;24.416;2024-03-02T10:46:04;12.70;99.90
20158;DHT22;10239;56.820;24.416;2024-03-02T10:48:33;12.40;99.90
20158;DHT22;10239;56.820;24.416;2024-03-02T10:51:03;12.60;99.90
20158;DHT22;10239;56.820;24.416;2024-03-02T10:53:31;12.50;99.90
20158;DHT22;10239;56.820;24.416;2024-03-02T10:55:59;12.20;99.90
20158;DHT22;10239;56.820;24.416;2024-03-02T10:58:32;11.90;99.90
20158;DHT22;10239;56.820;24.416;2024-03-02T11:01:03;11.30;99.90
20158;DHT22;10239;56.820;24.416;2024-03-02T11:03:35;11.40;99.90
20158;DHT22;10239;56.820;24.416;2024-03-02T11:06:08;11.40;99.90
20158;DHT22;10239;56.820;24.416;2024-03-02T11:08:38;11.40;99.90
20158;DHT22;10239;56.820;24.416;2024-03-02T11:11:18;10.90;99.90
20158;DHT22;10239;56.820;24.416;2024-03-02T11:13:50;11.10;99.90
20158;DHT22;10239;56.820;24.416;2024-03-02T11:16:31;11.40;99.90
20158;DHT22;10239;56.820;24.416;2024-03-02T11:19:05;11.30;99.90
20158;DHT22;10239;56.820;24.416;2024-03-02T11:21:37;11.60;99.90
20158;DHT22;10239;56.820;24.416;2024-03-02T11:26:51;11.60;99.90
20158;DHT22;10239;56.820;24.416;2024-03-02T11:32:23;11.70;99.90
20158;DHT22;10239;56.820;24.416;2024-03-02T11:34:52;11.70;99.90
20158;DHT22;10239;56.820;24.416;2024-03-02T11:37:20;11.30;99.90
20158;DHT22;10239;56.820;24.416;2024-03-02T11:39:50;10.90;99.90
20158;DHT22;10239;56.820;24.416;2024-03-02T11:42:18;11.00;99.90
20158;DHT22;10239;56.820;24.416;2024-03-02T11:44:47;10.80;99.90
20158;DHT22;10239;56.820;24.416;2024-03-02T11:47:16;11.00;99.90
20158;DHT22;10239;56.820;24.416;2024-03-02T11:49:48;11.00;99.90
20158;DHT22;10239;56.820;24.416;2024-03-02T11:52:16;10.80;99.90
20158;DHT22;10239;56.820;24.416;2024-03-02T11:54:46;10.70;99.90
20158;DHT22;10239;56.820;24.416;2024-03-02T11:57:16;10.90;99.90
20158;DHT22;10239;56.820;24.416;2024-03-02T11:59:44;10.50;99.90
20158;DHT22;10239;56.820;24.416;2024-03-02T12:02:19;10.70;99.90
20158;DHT22;10239;56.820;24.416;2024-03-02T12:04:48;10.70;99.90
20158;DHT22;10239;56.820;24.416;2024-03-02T12:07:20;10.80;99.90
20158;DHT22;10239;56.820;24.416;2024-03-02T12:09:59;10.60;99.90
20158;DHT22;10239;56.820;24.416;2024-03-02T12:12:28;10.60;99.90
20158;DHT22;10239;56.820;24.416;2024-03-02T12:14:55;10.50;99.90
20158;DHT22;10239;56.820;24.416;2024-03-02T12:17:23;10.60;99.90
20158;DHT22;10239;56.820;24.416;2024-03-02T12:19:50;10.60;99.90
20158;DHT22;10239;56.820;24.416;2024-03-02T12:22:18;10.60;99.90
20158;DHT22;10239;56.820;24.416;2024-03-02T12:24:46;10.70;99.90
20158;DHT22;10239;56.820;24.416;2024-03-02T12:27:15;10.30;99.90
20158;DHT22;10239;56.820;24.416;2024-03-02T12:29:43;10.50;99.90
20158;DHT22;10239;56.820;24.416;2024-03-02T12:32:11;10.40;99.90
20158;DHT22;10239;56.820;24.416;2024-03-02T12:34:39;10.20;99.90
20158;DHT22;10239;56.820;24.416;2024-03-02T12:37:06;10.10;99.90
20158;DHT22;10239;56.820;24.416;2024-03-02T12:39:34;10.10;99.90
20158;DHT22;10239;56.820;24.416;2024-03-02T12:42:03;10.00;99.90
20158;DHT22;10239;56.820;24.416;2024-03-02T12:44:30;10.00;99.90
20158;DHT22;10239;56.820;24.416;2024-03-02T12:46:58;10.30;99.90
20158;DHT22;10239;56.820;24.416;2024-03-02T12:49:28;10.40;99.90
20158;DHT22;10239;56.820;24.416;2024-03-02T12:51:58;10.50;99.90
20158;DHT22;10239;56.820;24.416;2024-03-02T12:54:26;10.30;99.90
20158;DHT22;10239;56.820;24.416;2024-03-02T12:56:56;10.10;99.90
20158;DHT22;10239;56.820;24.416;2024-03-02T12:59:25;10.30;99.90
20158;DHT22;10239;56.820;24.416;2024-03-02T13:01:55;10.40;99.90
20158;DHT22;10239;56.820;24.416;2024-03-02T13:04:26;10.40;99.90
20158;DHT22;10239;56.820;24.416;2024-03-02T13:06:56;10.30;99.90
20158;DHT22;10239;56.820;24.416;2024-03-02T13:09:26;10.20;99.90
20158;DHT22;10239;56.820;24.416;2024-03-02T13:11:54;10.30;99.90
20158;DHT22;10239;56.820;24.416;2024-03-02T13:14:22;9.90;99.90
20158;DHT22;10239;56.820;24.416;2024-03-02T13:16:52;10.00;99.90
20158;DHT22;10239;56.820;24.416;2024-03-02T13:19:26;10.20;99.90
20158;DHT22;10239;56.820;24.416;2024-03-02T13:21:58;10.30;99.90
20158;DHT22;10239;56.820;24.416;2024-03-02T13:24:25;10.20;99.90
20158;DHT22;10239;56.820;24.416;2024-03-02T13:26:55;10.30;99.90
20158;DHT22;10239;56.820;24.416;2024-03-02T13:29:25;10.20;99.90
20158;DHT22;10239;56.820;24.416;2024-03-02T13:31:53;10.20;99.90
20158;DHT22;10239;56.820;24.416;2024-03-02T13:34:20;10.30;99.90
20158;DHT22;10239;56.820;24.416;2024-03-02T13:36:48;10.40;99.90
20158;DHT22;10239;56.820;24.416;2024-03-02T13:39:16;10.30;99.90
20158;DHT22;10239;56.820;24.416;2024-03-02T13:41:44;10.40;99.90
20158;DHT22;10239;56.820;24.416;2024-03-02T13:44:19;10.30;99.90
20158;DHT22;10239;56.820;24.416;2024-03-02T13:46:46;10.00;99.90
20158;DHT22;10239;56.820;24.416;2024-03-02T13:49:14;10.10;99.90
20158;DHT22;10239;56.820;24.416;2024-03-02T13:51:41;10.10;99.90
20158;DHT22;10239;56.820;24.416;2024-03-02T13:54:08;10.30;99.90
20158;DHT22;10239;56.820;24.416;2024-03-02T13:56:36;10.20;99.90
20158;DHT22;10239;56.820;24.416;2024-03-02T13:59:06;10.10;99.90
20158;DHT22;10239;56.820;24.416;2024-03-02T14:01:34;10.10;99.90
20158;DHT22;10239;56.820;24.416;2024-03-02T14:04:01;10.20;99.90
20158;DHT22;10239;56.820;24.416;2024-03-02T14:06:29;10.10;99.90
20158;DHT22;10239;56.820;24.416;2024-03-02T14:08:56;10.20;99.90
20158;DHT22;10239;56.820;24.416;2024-03-02T14:11:24;9.80;99.90
20158;DHT22;10239;56.820;24.416;2024-03-02T14:13:52;9.90;99.90
20158;DHT22;10239;56.820;24.416;2024-03-02T14:16:21;9.80;99.90
20158;DHT22;10239;56.820;24.416;2024-03-02T14:18:49;9.80;99.90
20158;DHT22;10239;56.820;24.416;2024-03-02T14:21:16;9.60;99.90
20158;DHT22;10239;56.820;24.416;2024-03-02T14:23:44;9.50;99.90
20158;DHT22;10239;56.820;24.416;2024-03-02T14:26:12;9.40;99.90
20158;DHT22;10239;56.820;24.416;2024-03-02T14:28:39;9.40;99.90
20158;DHT22;10239;56.820;24.416;2024-03-02T14:31:17;9.40;99.90
20158;DHT22;10239;56.820;24.416;2024-03-02T14:33:45;9.50;99.90
20158;DHT22;10239;56.820;24.416;2024-03-02T14:36:13;9.50;99.90
20158;DHT22;10239;56.820;24.416;2024-03-02T14:38:40;9.50;99.90
20158;DHT22;10239;56.820;24.416;2024-03-02T14:41:08;9.50;99.90
20158;DHT22;10239;56.820;24.416;2024-03-02T14:43:36;9.50;99.90
20158;DHT22;10239;56.820;24.416;2024-03-02T14:46:04;9.40;99.90
20158;DHT22;10239;56.820;24.416;2024-03-02T14:48:32;9.30;99.90
20158;DHT22;10239;56.820;24.416;2024-03-02T14:51:02;9.20;99.90
20158;DHT22;10239;56.820;24.416;2024-03-02T14:53:29;9.30;99.90
20158;DHT22;10239;56.820;24.416;2024-03-02T14:55:57;9.30;99.90
20158;DHT22;10239;56.820;24.416;2024-03-02T14:58:26;9.30;99.90
20158;DHT22;10239;56.820;24.416;2024-03-02T15:00:54;9.20;99.90
20158;DHT22;10239;56.820;24.416;2024-03-02T15:03:21;9.20;99.90
20158;DHT22;10239;56.820;24.416;2024-03-02T15:05:49;9.20;99.90
20158;DHT22;10239;56.820;24.416;2024-03-02T15:08:18;9.20;99.90
20158;DHT22;10239;56.820;24.416;2024-03-02T15:10:47;9.10;99.90
20158;DHT22;10239;56.820;24.416;2024-03-02T15:13:14;9.00;99.90
20158;DHT22;10239;56.820;24.416;2024-03-02T15:15:42;9.00;99.90
20158;DHT22;10239;56.820;24.416;2024-03-02T15:18:10;9.00;99.90
20158;DHT22;10239;56.820;24.416;2024-03-02T15:20:38;9.00;99.90
20158;DHT22;10239;56.820;24.416;2024-03-02T15:23:06;8.90;99.90
20158;DHT22;10239;56.820;24.416;2024-03-02T15:25:33;8.90;99.90
20158;DHT22;10239;56.820;24.416;2024-03-02T15:28:01;8.90;99.90
20158;DHT22;10239;56.820;24.416;2024-03-02T15:30:29;8.90;99.90
20158;DHT22;10239;56.820;24.416;2024-03-02T15:32:56;8.90;99.90
20158;DHT22;10239;56.820;24.416;2024-03-02T15:35:24;8.70;99.90
20158;DHT22;10239;56.820;24.416;2024-03-02T15:37:53;8.70;99.90
20158;DHT22;10239;56.820;24.416;2024-03-02T15:40:20;8.70;99.90
20158;DHT22;10239;56.820;24.416;2024-03-02T15:42:48;8.60;99.90